createdAt,value
2022-11-06T00:00:38.746Z,9.10
2022-11-06T00:03:07.472Z,9.00
2022-11-06T00:05:53.562Z,9.00
2022-11-06T00:08:29.664Z,9.00
2022-11-06T00:10:59.259Z,9.00
2022-11-06T00:13:27.941Z,9.00
2022-11-06T00:15:56.213Z,9.00
2022-11-06T00:18:28.036Z,8.90
2022-11-06T00:20:56.065Z,8.90
2022-11-06T00:23:24.294Z,8.90
2022-11-06T00:25:56.421Z,8.90
2022-11-06T00:28:25.897Z,8.90
2022-11-06T00:31:12.765Z,8.90
2022-11-06T00:33:41.373Z,8.80
2022-11-06T00:36:13.501Z,8.80
2022-11-06T00:38:41.685Z,8.80
2022-11-06T00:41:13.156Z,8.80
2022-11-06T00:43:43.339Z,8.80
2022-11-06T00:46:12.919Z,8.80
2022-11-06T00:48:42.606Z,8.80
2022-11-06T00:51:14.061Z,8.80
2022-11-06T00:53:42.949Z,8.80
2022-11-06T00:56:14.105Z,8.80
2022-11-06T00:58:44.247Z,8.90
2022-11-06T01:01:13.955Z,8.90
2022-11-06T01:03:43.842Z,8.80
2022-11-06T01:06:13.961Z,8.80
2022-11-06T01:08:42.797Z,8.80
2022-11-06T01:11:13.282Z,8.80
2022-11-06T01:13:43.855Z,8.80
2022-11-06T01:16:14.609Z,8.80
2022-11-06T01:18:44.692Z,8.80
2022-11-06T01:21:16.521Z,8.80
2022-11-06T01:23:45.898Z,8.80
2022-11-06T01:26:18.622Z,8.80
2022-11-06T01:28:58.858Z,8.80
2022-11-06T01:31:30.277Z,8.80
2022-11-06T01:34:00.187Z,8.80
2022-11-06T01:36:29.962Z,8.80
2022-11-06T01:39:00.834Z,8.80
2022-11-06T01:41:32.401Z,8.80
2022-11-06T01:44:09.372Z,8.80
2022-11-06T01:46:41.316Z,8.80
2022-11-06T01:49:13.284Z,8.80
2022-11-06T01:51:45.073Z,8.80
2022-11-06T01:54:14.020Z,8.70
2022-11-06T01:56:45.063Z,8.70
2022-11-06T01:59:18.585Z,8.70
2022-11-06T02:01:47.471Z,8.70
2022-11-06T02:04:19.279Z,8.70
2022-11-06T02:06:48.293Z,8.60
2022-11-06T02:09:17.239Z,8.60
2022-11-06T02:11:49.009Z,8.60
2022-11-06T02:14:26.035Z,8.60
2022-11-06T02:17:00.119Z,8.60
2022-11-06T02:19:50.184Z,8.60
2022-11-06T02:22:33.397Z,8.60
2022-11-06T02:25:16.052Z,8.50
2022-11-06T02:27:48.712Z,8.50
2022-11-06T02:30:18.741Z,8.50
2022-11-06T02:32:51.034Z,8.50
2022-11-06T02:35:23.604Z,8.50
2022-11-06T02:37:57.706Z,8.50
2022-11-06T02:40:33.101Z,8.40
2022-11-06T02:43:06.705Z,8.50
2022-11-06T02:45:40.210Z,8.40
2022-11-06T02:48:11.196Z,8.50
2022-11-06T02:50:43.833Z,8.50
2022-11-06T02:53:15.417Z,8.50
2022-11-06T02:55:47.326Z,8.50
2022-11-06T02:58:19.904Z,8.50
2022-11-06T03:00:53.524Z,8.40
2022-11-06T03:03:26.687Z,8.40
2022-11-06T03:05:59.120Z,8.40
2022-11-06T03:08:35.255Z,8.40
2022-11-06T03:11:13.706Z,8.40
2022-11-06T03:13:52.373Z,8.40
2022-11-06T03:16:30.254Z,8.40
2022-11-06T03:19:04.670Z,8.40
2022-11-06T03:21:39.761Z,8.40
2022-11-06T03:24:15.925Z,8.40
2022-11-06T03:26:57.309Z,8.40
2022-11-06T03:29:34.430Z,8.30
2022-11-06T03:32:09.137Z,8.40
2022-11-06T03:34:43.893Z,8.40
2022-11-06T03:37:15.983Z,8.40
2022-11-06T03:39:49.851Z,8.40
2022-11-06T03:42:23.908Z,8.40
2022-11-06T03:44:57.997Z,8.40
2022-11-06T03:47:32.426Z,8.40
2022-11-06T03:50:06.201Z,8.30
2022-11-06T03:52:38.229Z,8.30
2022-11-06T03:55:10.910Z,8.30
2022-11-06T03:57:44.605Z,8.20
2022-11-06T04:00:17.161Z,8.20
2022-11-06T04:02:51.825Z,8.20
2022-11-06T04:05:24.029Z,8.20
2022-11-06T04:08:10.925Z,8.10
2022-11-06T04:11:00.618Z,8.10
2022-11-06T04:13:50.810Z,8.10
2022-11-06T04:16:20.312Z,8.10
2022-11-06T04:18:48.539Z,8.20
2022-11-06T04:21:27.874Z,8.20
2022-11-06T04:24:25.221Z,8.20
2022-11-06T04:27:08.306Z,8.30
2022-11-06T04:29:46.762Z,8.30
2022-11-06T04:32:22.789Z,8.30
2022-11-06T04:34:57.631Z,8.30
2022-11-06T04:37:32.788Z,8.30
2022-11-06T04:40:06.748Z,8.30
2022-11-06T04:42:41.712Z,8.30
2022-11-06T04:45:15.792Z,8.30
2022-11-06T04:47:46.531Z,8.30
2022-11-06T04:50:16.281Z,8.30
2022-11-06T04:52:46.197Z,8.20
2022-11-06T04:55:14.432Z,8.20
2022-11-06T04:57:42.595Z,8.20
2022-11-06T05:00:14.675Z,8.10
2022-11-06T05:02:44.120Z,8.10
2022-11-06T05:05:12.224Z,8.00
2022-11-06T05:07:40.420Z,8.00
2022-11-06T05:10:09.199Z,8.00
2022-11-06T05:12:37.338Z,8.00
2022-11-06T05:15:06.031Z,8.00
2022-11-06T05:17:36.699Z,8.00
2022-11-06T05:20:07.482Z,7.90
2022-11-06T05:22:53.018Z,8.00
2022-11-06T05:25:21.083Z,8.00
2022-11-06T05:27:49.255Z,8.00
2022-11-06T05:30:17.689Z,8.00
2022-11-06T05:32:46.022Z,8.00
2022-11-06T05:35:15.804Z,7.90
2022-11-06T05:37:43.902Z,7.90
2022-11-06T05:40:12.781Z,7.90
2022-11-06T05:42:41.542Z,7.80
2022-11-06T05:45:11.181Z,7.80
2022-11-06T05:47:41.823Z,7.70
2022-11-06T05:50:11.311Z,7.70
2022-11-06T05:52:40.783Z,7.70
2022-11-06T05:55:14.477Z,7.80
2022-11-06T05:57:43.787Z,7.70
2022-11-06T06:00:13.759Z,7.80
2022-11-06T06:02:42.379Z,7.80
2022-11-06T06:05:11.517Z,7.80
2022-11-06T06:07:41.018Z,7.70
2022-11-06T06:10:10.054Z,7.70
2022-11-06T06:12:39.653Z,7.70
2022-11-06T06:15:08.505Z,7.70
2022-11-06T06:17:37.000Z,7.70
2022-11-06T06:20:06.071Z,7.70
2022-11-06T06:22:34.193Z,7.70
2022-11-06T06:25:03.748Z,7.70
2022-11-06T06:27:32.182Z,7.70
2022-11-06T06:30:00.380Z,7.80
2022-11-06T06:32:28.471Z,7.80
2022-11-06T06:34:56.487Z,7.80
2022-11-06T06:37:24.766Z,7.90
2022-11-06T06:39:52.776Z,7.80
2022-11-06T06:42:24.992Z,7.90
2022-11-06T06:44:55.460Z,8.00
2022-11-06T06:47:23.569Z,8.00
2022-11-06T06:49:51.746Z,8.10
2022-11-06T06:52:19.860Z,8.20
2022-11-06T06:54:48.105Z,8.20
2022-11-06T06:57:18.965Z,8.30
2022-11-06T06:59:48.539Z,8.40
2022-11-06T07:02:16.729Z,8.40
2022-11-06T07:04:44.876Z,8.50
2022-11-06T07:07:13.343Z,8.50
2022-11-06T07:09:41.488Z,8.60
2022-11-06T07:12:09.868Z,8.70
2022-11-06T07:14:38.011Z,8.90
2022-11-06T07:17:07.678Z,9.10
2022-11-06T07:19:36.054Z,9.40
2022-11-06T07:22:04.289Z,9.60
2022-11-06T07:24:32.436Z,9.70
2022-11-06T07:27:00.489Z,9.80
2022-11-06T07:29:28.849Z,10.00
2022-11-06T07:31:57.361Z,9.90
2022-11-06T07:34:27.039Z,9.80
2022-11-06T07:36:55.333Z,9.70
2022-11-06T07:39:26.654Z,9.60
2022-11-06T07:41:54.672Z,9.50
2022-11-06T07:44:22.752Z,9.40
2022-11-06T07:46:50.951Z,9.40
2022-11-06T07:49:22.081Z,9.60
2022-11-06T07:51:51.593Z,9.90
2022-11-06T07:54:21.427Z,10.20
2022-11-06T07:56:49.619Z,10.30
2022-11-06T07:59:17.822Z,10.60
2022-11-06T08:01:46.065Z,10.70
2022-11-06T08:04:14.334Z,10.90
2022-11-06T08:06:42.514Z,11.20
2022-11-06T08:09:12.030Z,11.20
2022-11-06T08:11:40.173Z,11.50
2022-11-06T08:14:08.233Z,11.60
2022-11-06T08:16:36.505Z,11.60
2022-11-06T08:19:04.751Z,11.90
2022-11-06T08:21:35.269Z,12.00
2022-11-06T08:24:03.734Z,12.00
2022-11-06T08:26:33.383Z,12.00
2022-11-06T08:29:01.479Z,12.20
2022-11-06T08:31:29.967Z,12.10
2022-11-06T08:33:58.019Z,12.40
2022-11-06T08:36:26.130Z,12.30
2022-11-06T08:38:54.206Z,12.40
2022-11-06T08:41:22.232Z,12.40
2022-11-06T08:43:54.309Z,12.50
2022-11-06T08:46:22.409Z,12.60
2022-11-06T08:48:53.338Z,12.60
2022-11-06T08:51:21.617Z,12.80
2022-11-06T08:53:49.947Z,13.00
2022-11-06T08:56:18.147Z,12.90
2022-11-06T08:58:47.420Z,13.00
2022-11-06T09:01:18.898Z,13.10
2022-11-06T09:03:47.108Z,13.00
2022-11-06T09:06:15.460Z,13.30
2022-11-06T09:08:43.566Z,13.50
2022-11-06T09:11:12.197Z,13.70
2022-11-06T09:13:40.934Z,13.50
2022-11-06T09:16:15.285Z,13.60
2022-11-06T09:18:45.601Z,13.90
2022-11-06T09:21:16.178Z,13.70
2022-11-06T09:23:46.084Z,13.50
2022-11-06T09:26:14.350Z,13.60
2022-11-06T09:28:42.584Z,13.70
2022-11-06T09:31:11.148Z,13.60
2022-11-06T09:33:39.201Z,13.70
2022-11-06T09:36:09.451Z,13.50
2022-11-06T09:38:37.518Z,13.70
2022-11-06T09:41:06.426Z,13.80
2022-11-06T09:44:10.999Z,13.90
2022-11-06T09:46:43.583Z,14.10
2022-11-06T09:49:21.836Z,14.10
2022-11-06T09:52:02.277Z,14.60
2022-11-06T09:54:35.626Z,15.00
2022-11-06T09:57:07.820Z,14.90
2022-11-06T09:59:38.358Z,15.10
2022-11-06T10:02:23.048Z,15.30
2022-11-06T10:04:56.692Z,15.30
2022-11-06T10:07:30.281Z,15.30
2022-11-06T10:09:59.127Z,15.20
2022-11-06T10:12:36.300Z,15.10
2022-11-06T10:15:17.960Z,14.70
2022-11-06T10:17:54.945Z,14.40
2022-11-06T10:20:29.799Z,14.40
2022-11-06T10:23:14.358Z,14.70
2022-11-06T10:25:51.232Z,15.00
2022-11-06T10:28:46.448Z,14.80
2022-11-06T10:31:24.250Z,14.50
2022-11-06T10:33:58.834Z,14.00
2022-11-06T10:36:32.562Z,13.90
2022-11-06T10:39:04.926Z,14.00
2022-11-06T10:41:37.884Z,14.20
2022-11-06T10:44:12.070Z,13.90
2022-11-06T10:46:44.456Z,13.90
2022-11-06T10:49:21.093Z,13.60
2022-11-06T10:52:14.170Z,13.50
2022-11-06T10:54:58.822Z,13.40
2022-11-06T10:57:38.294Z,13.40
2022-11-06T11:00:07.416Z,13.60
2022-11-06T11:02:40.093Z,13.50
2022-11-06T11:05:14.209Z,13.40
2022-11-06T11:07:44.108Z,13.20
2022-11-06T11:10:29.068Z,13.00
2022-11-06T11:13:00.771Z,13.10
2022-11-06T11:15:33.690Z,12.90
2022-11-06T11:18:10.660Z,12.80
2022-11-06T11:20:40.265Z,12.80
2022-11-06T11:23:17.072Z,12.80
2022-11-06T11:25:50.645Z,12.80
2022-11-06T11:28:26.895Z,12.80
2022-11-06T11:31:00.036Z,12.70
2022-11-06T11:33:28.461Z,12.80
2022-11-06T11:35:56.828Z,12.70
2022-11-06T11:38:26.197Z,12.80
2022-11-06T11:41:07.489Z,12.80
2022-11-06T11:43:36.416Z,12.70
2022-11-06T11:46:19.163Z,12.70
2022-11-06T11:48:49.781Z,12.80
2022-11-06T11:51:28.396Z,12.70
2022-11-06T11:54:01.739Z,12.70
2022-11-06T11:57:02.834Z,12.80
2022-11-06T11:59:25.389Z,12.70
2022-11-06T12:01:55.116Z,12.80
2022-11-06T12:04:28.566Z,12.80
2022-11-06T12:07:02.769Z,12.90
2022-11-06T12:09:34.348Z,13.10
2022-11-06T12:12:04.507Z,13.30
2022-11-06T12:14:38.933Z,13.50
2022-11-06T12:17:19.487Z,13.50
2022-11-06T12:19:53.477Z,13.70
2022-11-06T12:22:28.062Z,13.80
2022-11-06T12:25:02.447Z,13.80
2022-11-06T12:27:38.941Z,13.80
2022-11-06T12:30:13.244Z,13.70
2022-11-06T12:33:03.670Z,13.60
2022-11-06T12:35:33.796Z,13.70
2022-11-06T12:38:17.318Z,13.80
2022-11-06T12:40:52.082Z,13.80
2022-11-06T12:43:29.643Z,13.80
2022-11-06T12:46:22.665Z,14.00
2022-11-06T12:49:30.732Z,13.90
2022-11-06T12:52:21.012Z,13.60
2022-11-06T12:55:13.335Z,13.40
2022-11-06T12:57:54.164Z,13.30
2022-11-06T13:00:31.550Z,13.40
2022-11-06T13:03:30.954Z,13.30
2022-11-06T13:06:10.492Z,13.30
2022-11-06T13:08:48.743Z,13.30
2022-11-06T13:11:26.270Z,13.20
2022-11-06T13:14:13.386Z,13.00
2022-11-06T13:16:50.382Z,12.80
2022-11-06T13:19:26.815Z,12.60
2022-11-06T13:22:19.825Z,12.50
2022-11-06T13:24:53.520Z,12.50
2022-11-06T13:27:29.213Z,12.50
2022-11-06T13:30:03.242Z,12.50
2022-11-06T13:32:37.173Z,12.70
2022-11-06T13:35:06.467Z,12.90
2022-11-06T13:37:40.313Z,13.50
2022-11-06T13:40:23.467Z,14.10
2022-11-06T13:42:55.767Z,14.70
2022-11-06T13:45:25.157Z,14.80
2022-11-06T13:48:16.645Z,14.40
2022-11-06T13:50:51.954Z,14.00
2022-11-06T13:53:28.378Z,13.70
2022-11-06T13:56:13.977Z,13.30
2022-11-06T13:59:05.482Z,13.10
2022-11-06T14:01:47.819Z,12.90
2022-11-06T14:04:50.888Z,12.70
2022-11-06T14:07:23.034Z,12.50
2022-11-06T14:09:51.354Z,12.50
2022-11-06T14:12:22.784Z,12.40
2022-11-06T14:14:53.003Z,12.40
2022-11-06T14:17:24.798Z,12.40
2022-11-06T14:20:07.888Z,12.40
2022-11-06T14:22:37.362Z,12.40
2022-11-06T14:25:38.488Z,12.40
2022-11-06T14:28:07.964Z,12.40
2022-11-06T14:31:10.888Z,12.50
2022-11-06T14:34:03.401Z,12.40
2022-11-06T14:36:36.423Z,12.40
2022-11-06T14:39:10.554Z,12.30
2022-11-06T14:41:57.299Z,12.30
2022-11-06T14:44:46.523Z,12.20
2022-11-06T14:47:33.214Z,12.20
2022-11-06T14:50:05.813Z,12.20
2022-11-06T14:52:45.766Z,12.10
2022-11-06T14:55:33.734Z,12.10
2022-11-06T14:58:15.417Z,12.10
2022-11-06T15:00:50.806Z,12.10
2022-11-06T15:03:31.016Z,12.00
2022-11-06T15:06:03.280Z,12.00
2022-11-06T15:08:55.601Z,12.00
2022-11-06T15:11:55.758Z,11.90
2022-11-06T15:14:56.491Z,11.90
2022-11-06T15:17:27.551Z,11.80
2022-11-06T15:20:22.054Z,11.70
2022-11-06T15:23:14.293Z,11.70
2022-11-06T15:25:52.440Z,11.60
2022-11-06T15:28:24.740Z,11.60
2022-11-06T15:31:01.194Z,11.60
2022-11-06T15:33:34.540Z,11.50
2022-11-06T15:36:07.941Z,11.50
2022-11-06T15:38:42.512Z,11.50
2022-11-06T15:41:15.690Z,11.40
2022-11-06T15:43:46.574Z,11.40
2022-11-06T15:46:19.462Z,11.40
2022-11-06T15:48:47.842Z,11.40
2022-11-06T15:51:24.392Z,11.30
2022-11-06T15:53:52.579Z,11.30
2022-11-06T15:56:25.161Z,11.30
2022-11-06T15:59:11.900Z,11.30
2022-11-06T16:01:40.720Z,11.30
2022-11-06T16:04:16.064Z,11.30
2022-11-06T16:06:45.601Z,11.30
2022-11-06T16:09:18.844Z,11.20
2022-11-06T16:11:51.289Z,11.20
2022-11-06T16:14:19.982Z,11.20
2022-11-06T16:16:50.047Z,11.20
2022-11-06T16:19:26.353Z,11.10
2022-11-06T16:21:58.301Z,11.10
2022-11-06T16:24:29.925Z,11.10
2022-11-06T16:26:59.994Z,11.10
2022-11-06T16:29:30.831Z,11.00
2022-11-06T16:32:05.728Z,11.00
2022-11-06T16:34:43.919Z,11.10
2022-11-06T16:37:36.960Z,11.10
2022-11-06T16:40:29.683Z,11.10
2022-11-06T16:43:12.009Z,11.10
2022-11-06T16:45:53.157Z,11.00
2022-11-06T16:48:39.524Z,11.10
2022-11-06T16:51:13.722Z,11.10
2022-11-06T16:54:00.922Z,11.00
2022-11-06T16:56:31.616Z,11.00
2022-11-06T16:59:04.929Z,10.90
2022-11-06T17:01:41.737Z,11.00
2022-11-06T17:04:20.787Z,11.00
2022-11-06T17:06:49.317Z,10.90
2022-11-06T17:09:30.812Z,10.90
2022-11-06T17:11:59.995Z,11.00
2022-11-06T17:14:30.559Z,10.90
2022-11-06T17:17:00.523Z,10.90
2022-11-06T17:19:29.773Z,10.90
2022-11-06T17:21:58.057Z,10.90
2022-11-06T17:24:42.129Z,10.90
2022-11-06T17:27:10.833Z,10.80
2022-11-06T17:29:40.263Z,10.80
2022-11-06T17:32:08.828Z,10.90
2022-11-06T17:34:37.147Z,10.90
2022-11-06T17:37:05.409Z,10.90
2022-11-06T17:39:34.366Z,10.90
2022-11-06T17:42:02.523Z,10.80
2022-11-06T17:44:30.956Z,10.80
2022-11-06T17:47:00.735Z,10.80
2022-11-06T17:49:28.849Z,10.80
2022-11-06T17:52:00.960Z,10.70
2022-11-06T17:54:32.152Z,10.70
2022-11-06T17:57:02.833Z,10.50
2022-11-06T17:59:31.664Z,10.40
2022-11-06T18:02:01.889Z,10.30
2022-11-06T18:04:31.955Z,10.20
2022-11-06T18:07:00.258Z,10.20
2022-11-06T18:09:28.798Z,10.10
2022-11-06T18:11:57.657Z,10.00
2022-11-06T18:14:28.252Z,10.00
2022-11-06T18:16:56.516Z,9.90
2022-11-06T18:19:27.492Z,9.90
2022-11-06T18:21:56.605Z,9.80
2022-11-06T18:24:25.552Z,9.80
2022-11-06T18:26:53.729Z,9.80
2022-11-06T18:29:21.816Z,9.80
2022-11-06T18:31:50.105Z,9.80
2022-11-06T18:34:21.191Z,9.80
2022-11-06T18:36:51.993Z,9.80
2022-11-06T18:39:20.612Z,9.70
2022-11-06T18:41:49.548Z,9.70
2022-11-06T18:44:19.003Z,9.70
2022-11-06T18:46:47.723Z,9.70
2022-11-06T18:49:16.886Z,9.60
2022-11-06T18:51:45.889Z,9.60
2022-11-06T18:54:15.983Z,9.50
2022-11-06T18:56:44.576Z,9.50
2022-11-06T18:59:16.563Z,9.60
2022-11-06T19:01:44.953Z,9.60
2022-11-06T19:04:13.204Z,9.60
2022-11-06T19:06:41.911Z,9.60
2022-11-06T19:09:11.650Z,9.60
2022-11-06T19:11:41.303Z,9.60
2022-11-06T19:14:09.812Z,9.70
2022-11-06T19:16:38.667Z,9.70
2022-11-06T19:19:08.327Z,9.70
2022-11-06T19:21:36.823Z,9.70
2022-11-06T19:24:06.681Z,9.60
2022-11-06T19:26:36.013Z,9.60
2022-11-06T19:29:07.705Z,9.70
2022-11-06T19:31:37.313Z,9.70
2022-11-06T19:34:07.388Z,9.70
2022-11-06T19:36:36.228Z,9.70
2022-11-06T19:39:05.066Z,9.70
2022-11-06T19:41:33.428Z,9.70
2022-11-06T19:44:01.913Z,9.70
2022-11-06T19:46:36.157Z,9.70
2022-11-06T19:49:05.252Z,9.70
2022-11-06T19:51:34.596Z,9.70
2022-11-06T19:54:03.286Z,9.80
2022-11-06T19:56:31.590Z,9.80
2022-11-06T19:59:01.156Z,9.80
2022-11-06T20:01:34.020Z,9.80
2022-11-06T20:04:02.769Z,9.80
2022-11-06T20:06:30.830Z,9.80
2022-11-06T20:08:59.579Z,9.80
2022-11-06T20:11:27.833Z,9.80
2022-11-06T20:13:56.184Z,9.80
2022-11-06T20:16:24.689Z,9.80
2022-11-06T20:18:56.302Z,9.80
2022-11-06T20:21:26.385Z,9.80
2022-11-06T20:23:55.146Z,9.90
2022-11-06T20:26:24.181Z,9.90
2022-11-06T20:28:52.508Z,9.90
2022-11-06T20:31:21.650Z,9.90
2022-11-06T20:33:50.252Z,9.90
2022-11-06T20:36:23.093Z,9.90
2022-11-06T20:38:52.219Z,9.90
2022-11-06T20:41:20.347Z,9.90
2022-11-06T20:43:48.976Z,9.90
2022-11-06T20:46:18.482Z,10.00
2022-11-06T20:48:48.753Z,10.00
2022-11-06T20:51:20.087Z,10.10
2022-11-06T20:53:48.499Z,10.10
2022-11-06T20:56:19.089Z,10.10
2022-11-06T20:58:47.315Z,10.10
2022-11-06T21:01:18.261Z,10.20
2022-11-06T21:03:48.105Z,10.20
2022-11-06T21:06:16.565Z,10.20
2022-11-06T21:08:46.877Z,10.30
2022-11-06T21:11:18.023Z,10.30
2022-11-06T21:13:48.722Z,10.30
2022-11-06T21:16:18.537Z,10.30
2022-11-06T21:18:47.032Z,10.30
2022-11-06T21:21:17.735Z,10.40
2022-11-06T21:23:47.898Z,10.40
2022-11-06T21:26:17.864Z,10.40
2022-11-06T21:28:46.602Z,10.40
2022-11-06T21:31:17.356Z,10.50
2022-11-06T21:33:48.105Z,10.50
2022-11-06T21:36:18.298Z,10.40
2022-11-06T21:38:48.081Z,10.50
2022-11-06T21:41:19.264Z,10.50
2022-11-06T21:43:49.248Z,10.40
2022-11-06T21:46:17.694Z,10.50
2022-11-06T21:48:47.310Z,10.50
2022-11-06T21:51:18.022Z,10.50
2022-11-06T21:54:06.223Z,10.50
2022-11-06T21:56:34.763Z,10.50
2022-11-06T21:59:04.491Z,10.60
2022-11-06T22:01:33.276Z,10.60
2022-11-06T22:04:02.035Z,10.60
2022-11-06T22:06:30.938Z,10.70
2022-11-06T22:09:02.799Z,10.70
2022-11-06T22:11:33.083Z,10.70
2022-11-06T22:14:03.276Z,10.70
2022-11-06T22:16:33.758Z,10.70
2022-11-06T22:19:01.856Z,10.70
2022-11-06T22:21:31.361Z,10.70
2022-11-06T22:24:00.919Z,10.70
2022-11-06T22:26:31.118Z,10.70
2022-11-06T22:29:02.082Z,10.70
2022-11-06T22:31:31.165Z,10.70
2022-11-06T22:34:00.880Z,10.70
2022-11-06T22:36:29.953Z,10.70
2022-11-06T22:39:00.826Z,10.70
2022-11-06T22:41:30.336Z,10.70
2022-11-06T22:43:59.943Z,10.70
2022-11-06T22:46:28.928Z,10.70
2022-11-06T22:48:57.592Z,10.70
2022-11-06T22:51:27.790Z,10.70
2022-11-06T22:53:56.805Z,10.80
2022-11-06T22:56:26.807Z,10.80
2022-11-06T22:58:57.922Z,10.80
2022-11-06T23:01:28.118Z,10.90
2022-11-06T23:03:57.790Z,10.90
2022-11-06T23:06:26.688Z,10.90
2022-11-06T23:08:55.263Z,10.90
2022-11-06T23:11:25.612Z,10.90
2022-11-06T23:13:54.280Z,11.00
2022-11-06T23:16:40.677Z,11.00
2022-11-06T23:19:09.808Z,11.00
2022-11-06T23:21:38.324Z,11.00
2022-11-06T23:24:07.725Z,11.10
2022-11-06T23:26:36.195Z,11.10
2022-11-06T23:29:04.843Z,11.10
2022-11-06T23:31:34.454Z,11.10
2022-11-06T23:34:02.724Z,11.10
2022-11-06T23:36:31.050Z,11.10
2022-11-06T23:38:59.128Z,11.10
2022-11-06T23:41:46.247Z,11.20
2022-11-06T23:44:32.208Z,11.20
2022-11-06T23:47:02.332Z,11.20
2022-11-06T23:49:30.560Z,11.20
2022-11-06T23:51:58.966Z,11.20
2022-11-06T23:54:27.100Z,11.20
2022-11-06T23:56:55.223Z,11.20
2022-11-06T23:59:23.587Z,11.20
